»·PEaware :: SWA2204 KPHX-KRNO

SWA2204 :: KPHX-KRNO

FLIGHT INFORMATION

Flight Status: Arrived
Operator:
Southwest Airlines
More flights by this operator :: More flights under this callsign
Pilot: Anonymous 17611 (17611)
Aircraft: Unknown
(B38M)
More flights by this aircraft type
Origin: KPHX Phoenix Sky Harbor Intl
United States
Destination: KRNO Reno/Tahoe Intl
United States
More flights between these airports :: More routes between these airports
Route: ZEPER2 RRSTA DOVEE BTY KENNO KENNO2
File this flight plan on PilotEdge
Remarks:
Altitude:
(Current/Filed)
34,000ft
Speed:
(Current/Filed)
437kts
Departed: 02-Oct-20 10:38 AM
Arrived: 02-Oct-20 12:02 PM
Distance/Time
Traveled:
521nm/1:24
Distance/Time
To Go:
Arrived

Flight Plot

Page will automatically refresh every two minutes.

Flight plan parsing failed; only flown route is shown


Map Options




Map Legend


Flown Route
Filed Route
Departure Airport
Arrival Airport
Navaid (VOR, NDB)
Fix

Horizontal Profiles

Position Reports

Time Latitude Longitude Heading Altitude Ground
Speed
02-Oct-20 10:09 33.434055 -111.998738 293 1116ft 0kts
02-Oct-20 10:10 33.434055 -111.998738 293 1116ft 0kts
02-Oct-20 10:11 33.434055 -111.998738 293 1116ft 0kts
02-Oct-20 10:12 33.434055 -111.998738 293 1116ft 0kts
02-Oct-20 10:13 33.434055 -111.998738 293 1116ft 0kts
02-Oct-20 10:14 33.434055 -111.998738 293 1116ft 0kts
02-Oct-20 10:15 33.434055 -111.998738 293 1116ft 0kts
02-Oct-20 10:16 33.434055 -111.998738 293 1116ft 0kts
02-Oct-20 10:17 33.434055 -111.998738 293 1116ft 0kts
02-Oct-20 10:18 33.434055 -111.998738 293 1116ft 0kts
02-Oct-20 10:19 33.434055 -111.998738 293 1116ft 0kts
02-Oct-20 10:20 33.434055 -111.998738 293 1116ft 0kts
02-Oct-20 10:21 33.434055 -111.998738 293 1116ft 0kts
02-Oct-20 10:22 33.434055 -111.998738 293 1116ft 0kts
02-Oct-20 10:23 33.434055 -111.998738 293 1116ft 0kts
02-Oct-20 10:24 33.434055 -111.998738 293 1116ft 0kts
02-Oct-20 10:25 33.434055 -111.998738 293 1116ft 0kts
02-Oct-20 10:26 33.434009 -111.998613 292 1117ft 2kts
02-Oct-20 10:27 33.434176 -111.998263 184 1117ft 2kts
02-Oct-20 10:28 33.433559 -111.998246 178 1116ft 0kts
02-Oct-20 10:29 33.433559 -111.998246 178 1116ft 0kts
02-Oct-20 10:30 33.433429 -111.998242 178 1116ft 3kts
02-Oct-20 10:31 33.432792 -112.000257 258 1116ft 8kts
02-Oct-20 10:32 33.432157 -112.003987 270 1116ft 18kts
02-Oct-20 10:33 33.432169 -112.012249 268 1116ft 29kts
02-Oct-20 10:34 33.432170 -112.021996 270 1116ft 29kts
02-Oct-20 10:35 33.432042 -112.026886 213 1116ft 0kts
02-Oct-20 10:36 33.431081 -112.026735 99 1116ft 6kts
02-Oct-20 10:37 33.431117 -111.992254 88 1773ft 188kts
02-Oct-20 10:38 33.434443 -111.918406 84 4052ft 268kts
02-Oct-20 10:39 33.463520 -111.842128 11 7298ft 282kts
02-Oct-20 10:40 33.543875 -111.838023 359 10503ft 300kts
02-Oct-20 10:41 33.632474 -111.836859 358 13002ft 343kts
02-Oct-20 10:42 33.725481 -111.858911 326 16484ft 350kts
02-Oct-20 10:43 33.791271 -111.945759 306 19689ft 363kts
02-Oct-20 10:44 33.852651 -112.046235 306 22336ft 379kts
02-Oct-20 10:45 33.915789 -112.150029 306 25000ft 393kts
02-Oct-20 10:46 33.980659 -112.257026 307 27342ft 407kts
02-Oct-20 10:47 34.054617 -112.362777 320 29461ft 420kts
02-Oct-20 10:48 34.145267 -112.453248 321 31588ft 428kts
02-Oct-20 10:49 34.235842 -112.544315 321 34004ft 423kts
02-Oct-20 10:50 34.324405 -112.633703 321 34302ft 435kts
02-Oct-20 10:51 34.415976 -112.726499 321 34302ft 435kts
02-Oct-20 10:53 34.507211 -112.819249 321 34301ft 435kts
02-Oct-20 10:54 34.599952 -112.913809 321 34301ft 438kts
02-Oct-20 10:55 34.693207 -113.009180 321 34301ft 441kts
02-Oct-20 10:56 34.774041 -113.121031 300 34280ft 449kts
02-Oct-20 10:57 34.830096 -113.257112 298 34218ft 449kts
02-Oct-20 10:58 34.885321 -113.392449 298 34200ft 449kts
02-Oct-20 10:59 34.940661 -113.528492 298 34200ft 447kts
02-Oct-20 11:00 34.995336 -113.663361 297 34199ft 444kts
02-Oct-20 11:01 35.049246 -113.796869 297 34199ft 443kts
02-Oct-20 11:02 35.103491 -113.931722 297 34200ft 443kts
02-Oct-20 11:03 35.157532 -114.066598 297 34190ft 443kts
02-Oct-20 11:04 35.210923 -114.200384 297 34201ft 443kts
02-Oct-20 11:05 35.264734 -114.335762 297 34140ft 443kts
02-Oct-20 11:06 35.317885 -114.470018 297 34033ft 443kts
02-Oct-20 11:06 35.362470 -114.583053 297 34009ft 443kts
02-Oct-20 11:08 35.424833 -114.741831 297 34010ft 443kts
02-Oct-20 11:09 35.493058 -114.865620 313 34058ft 440kts
02-Oct-20 11:10 35.574030 -114.978255 312 34127ft 441kts
02-Oct-20 11:11 35.655307 -115.092436 312 34149ft 447kts
02-Oct-20 11:11 35.723512 -115.188649 311 34168ft 449kts
02-Oct-20 11:12 35.805551 -115.304800 311 34173ft 449kts
02-Oct-20 11:14 35.900901 -115.440341 311 34165ft 449kts
02-Oct-20 11:14 35.968858 -115.537300 311 34146ft 449kts
02-Oct-20 11:15 36.049803 -115.653170 310 34137ft 449kts
02-Oct-20 11:16 36.129619 -115.767828 310 34178ft 449kts
02-Oct-20 11:17 36.211564 -115.885965 310 34192ft 449kts
02-Oct-20 11:18 36.292579 -116.003178 310 34192ft 449kts
02-Oct-20 11:19 36.373663 -116.120910 310 34192ft 449kts
02-Oct-20 11:20 36.454608 -116.238853 310 34192ft 449kts
02-Oct-20 11:21 36.535326 -116.356884 310 34192ft 449kts
02-Oct-20 11:22 36.615796 -116.474965 310 34192ft 449kts
02-Oct-20 11:23 36.696332 -116.593555 310 34192ft 449kts
02-Oct-20 11:24 36.776670 -116.712269 310 34191ft 449kts
02-Oct-20 11:25 36.865375 -116.821302 318 34231ft 448kts
02-Oct-20 11:26 36.957943 -116.924953 318 34348ft 449kts
02-Oct-20 11:27 37.051079 -117.029938 317 34366ft 451kts
02-Oct-20 11:28 37.143638 -117.134706 317 34365ft 451kts
02-Oct-20 11:29 37.236614 -117.240334 317 34365ft 451kts
02-Oct-20 11:30 37.329760 -117.345069 319 34366ft 451kts
02-Oct-20 11:31 37.425481 -117.446964 319 34343ft 451kts
02-Oct-20 11:32 37.512366 -117.536306 326 34330ft 452kts
02-Oct-20 11:33 37.605808 -117.608728 328 34352ft 451kts
02-Oct-20 11:34 37.711972 -117.692774 327 34329ft 452kts
02-Oct-20 11:35 37.818427 -117.777413 327 34300ft 452kts
02-Oct-20 11:36 37.924218 -117.861848 327 34275ft 452kts
02-Oct-20 11:37 38.030413 -117.946916 327 34317ft 452kts
02-Oct-20 11:38 38.135103 -118.031081 327 34336ft 451kts
02-Oct-20 11:39 38.240979 -118.116502 327 34329ft 451kts
02-Oct-20 11:40 38.346968 -118.202318 327 34329ft 451kts
02-Oct-20 11:41 38.447476 -118.296282 316 34330ft 450kts
02-Oct-20 11:42 38.537194 -118.406964 315 34329ft 450kts
02-Oct-20 11:43 38.627136 -118.518447 315 32854ft 450kts
02-Oct-20 11:44 38.715752 -118.628665 316 29005ft 451kts
02-Oct-20 11:45 38.804003 -118.738519 315 28328ft 445kts
02-Oct-20 11:46 38.892498 -118.848942 315 27446ft 439kts
02-Oct-20 11:47 38.978408 -118.956534 316 24483ft 423kts
02-Oct-20 11:48 39.060146 -119.059261 316 21835ft 404kts
02-Oct-20 11:49 39.138192 -119.157678 316 19363ft 385kts
02-Oct-20 11:50 39.212253 -119.251319 316 16762ft 376kts
02-Oct-20 11:51 39.284942 -119.343300 316 14404ft 359kts
02-Oct-20 11:52 39.353345 -119.429803 319 12641ft 313kts
02-Oct-20 11:53 39.420638 -119.493586 325 11413ft 293kts
02-Oct-20 11:54 39.484667 -119.553160 324 10257ft 264kts
02-Oct-20 11:55 39.538724 -119.603704 324 9036ft 230kts
02-Oct-20 11:56 39.590322 -119.652093 324 7864ft 228kts
02-Oct-20 11:57 39.609714 -119.720122 253 6769ft 187kts
02-Oct-20 11:58 39.577892 -119.764692 198 5787ft 172kts
02-Oct-20 11:59 39.533022 -119.769164 179 4844ft 158kts
02-Oct-20 12:00 39.494225 -119.769261 179 4417ft 72kts
02-Oct-20 12:01 39.489303 -119.770520 306 4417ft 0kts
02-Oct-20 12:02 39.491908 -119.770689 0 4417ft 22kts

Navigation Log

Ident Type
Flight plan parsing failed, navigation log unavailable